Time;durP1;ratioP1;P1;durP2;ratioP2;P2;SDS_P1;SDS_P2;PMS_P1;PMS_P2;Temp;Humidity;BMP_temperature;BMP_pressure;BME280_temperature;BME280_humidity;BME280_pressure;Samples;Min_cycle;Max_cycle;Signal;HPM_P1;HPM_P2
2021/06/06 00:02:05;;;;;;;2.58;1.10;;;;;;;15.26;75.88;96713.38;5047511;28;20515;-71
2021/06/06 00:04:32;;;;;;;4.10;1.55;;;;;;;15.23;75.90;96725.03;5051450;28;20400;-71
2021/06/06 00:06:58;;;;;;;4.75;1.60;;;;;;;15.23;76.22;96716.78;5051040;28;20080;-70
2021/06/06 00:09:24;;;;;;;3.25;1.38;;;;;;;15.24;76.10;96710.97;5050813;28;20539;-71
2021/06/06 00:11:54;;;;;;;4.38;1.40;;;;;;;15.23;75.93;96709.34;5051121;28;20044;-71
2021/06/06 00:14:22;;;;;;;3.45;1.30;;;;;;;15.24;75.90;96710.97;5050651;28;20076;-71
2021/06/06 00:16:51;;;;;;;3.70;1.63;;;;;;;15.25;76.21;96701.59;5050957;28;20123;-72
2021/06/06 00:19:19;;;;;;;4.10;1.48;;;;;;;15.27;76.01;96698.53;5050671;28;20044;-72
2021/06/06 00:21:47;;;;;;;3.72;1.48;;;;;;;15.31;76.09;96705.72;5050985;28;20076;-69
2021/06/06 00:24:16;;;;;;;2.67;1.20;;;;;;;15.31;75.94;96700.25;5050791;28;20053;-72
2021/06/06 00:26:42;;;;;;;3.13;1.10;;;;;;;15.30;75.95;96698.66;5050818;28;20412;-71
2021/06/06 00:29:09;;;;;;;4.55;1.65;;;;;;;15.30;76.24;96695.91;5035429;28;20042;-71
2021/06/06 00:31:35;;;;;;;3.83;1.40;;;;;;;15.30;76.59;96697.84;5043353;28;20043;-71
2021/06/06 00:34:02;;;;;;;3.90;1.75;;;;;;;15.33;76.28;96697.94;5050656;28;20099;-71
2021/06/06 00:36:28;;;;;;;4.93;1.70;;;;;;;15.31;76.48;96700.25;5050895;28;20048;-71
2021/06/06 00:38:56;;;;;;;4.20;1.33;;;;;;;15.30;76.61;96698.66;5051004;28;20385;-71
2021/06/06 00:41:25;;;;;;;3.55;1.42;;;;;;;15.30;76.49;96686.88;5050317;28;20061;-72
2021/06/06 00:43:52;;;;;;;4.22;1.48;;;;;;;15.31;76.50;96694.75;5051033;28;20041;-71
2021/06/06 00:46:21;;;;;;;3.30;1.40;;;;;;;15.23;77.01;96686.63;5050372;28;20522;-71
2021/06/06 00:48:47;;;;;;;4.07;1.80;;;;;;;15.17;77.61;96687.97;5050795;28;20492;-71
2021/06/06 00:51:17;;;;;;;4.53;1.80;;;;;;;15.14;77.85;96684.00;5050083;28;20045;-71
2021/06/06 00:53:47;;;;;;;2.65;1.25;;;;;;;15.16;77.71;96691.88;5050990;28;20435;-71
2021/06/06 00:56:18;;;;;;;4.57;1.77;;;;;;;15.19;77.79;96688.44;5050239;28;20051;-72
2021/06/06 00:58:47;;;;;;;4.00;1.73;;;;;;;15.26;77.84;96686.75;5035932;28;20570;-72
2021/06/06 01:01:16;;;;;;;3.25;1.20;;;;;;;15.31;77.35;96688.47;5039639;28;20044;-71
2021/06/06 01:03:42;;;;;;;3.08;1.40;;;;;;;15.22;77.55;96688.56;5050712;28;20043;-72
2021/06/06 01:06:12;;;;;;;2.97;1.30;;;;;;;15.19;77.70;96686.50;5049947;28;20045;-71
2021/06/06 01:08:39;;;;;;;2.70;1.38;;;;;;;15.17;77.86;96686.03;5050876;28;20463;-72
2021/06/06 01:11:12;;;;;;;4.28;1.67;;;;;;;15.16;78.14;96684.44;5050084;28;20041;-71
2021/06/06 01:13:45;;;;;;;6.35;1.98;;;;;;;15.10;78.17;96680.31;5050854;28;20048;-72
2021/06/06 01:16:17;;;;;;;4.28;1.63;;;;;;;15.05;79.30;96677.78;5050295;28;20411;-71
2021/06/06 01:18:47;;;;;;;4.50;1.75;;;;;;;15.03;79.54;96680.03;5050810;28;20103;-72
2021/06/06 01:21:24;;;;;;;4.22;1.70;;;;;;;14.91;80.44;96677.28;5049996;28;20049;-72
2021/06/06 01:24:11;;;;;;;5.80;2.47;;;;;;;14.74;81.86;96675.50;5050549;28;20458;-70
2021/06/06 01:26:42;;;;;;;3.72;1.80;;;;;;;14.62;82.71;96673.53;5050429;28;20476;-71
2021/06/06 01:29:19;;;;;;;4.97;2.20;;;;;;;14.46;84.18;96677.97;5032158;28;20051;-72
2021/06/06 01:31:50;;;;;;;3.25;2.03;;;;;;;14.35;84.77;96675.66;5044267;28;20049;-71
2021/06/06 01:34:19;;;;;;;3.28;1.90;;;;;;;14.29;85.50;96676.16;5050089;28;20041;-72
2021/06/06 01:36:50;;;;;;;5.18;2.13;;;;;;;14.24;85.35;96679.91;5050453;28;20138;-73
2021/06/06 01:39:21;;;;;;;6.13;2.53;;;;;;;14.18;85.88;96670.28;5050431;28;20049;-72
2021/06/06 01:41:52;;;;;;;4.05;2.15;;;;;;;14.09;86.39;96672.28;5053521;28;20045;-73
2021/06/06 01:44:23;;;;;;;5.00;2.40;;;;;;;13.97;86.84;96672.22;5053531;28;20052;-73
2021/06/06 01:46:53;;;;;;;3.50;2.00;;;;;;;13.89;87.54;96668.41;5053805;28;20045;-73
2021/06/06 01:49:22;;;;;;;4.72;2.30;;;;;;;13.84;88.22;96666.66;5053354;28;20048;-73
2021/06/06 01:51:52;;;;;;;4.82;2.58;;;;;;;13.78;88.26;96667.16;5053479;28;20499;-73
2021/06/06 01:54:22;;;;;;;5.68;2.50;;;;;;;13.80;88.65;96660.22;5053379;28;20049;-73
2021/06/06 01:56:51;;;;;;;4.25;2.20;;;;;;;13.81;88.86;96658.28;5053672;28;20083;-73
2021/06/06 01:59:21;;;;;;;3.72;1.85;;;;;;;13.78;88.89;96657.03;5033838;28;20096;-73
2021/06/06 02:01:47;;;;;;;5.13;2.35;;;;;;;13.73;88.65;96656.41;5047625;28;20127;-73
2021/06/06 02:04:13;;;;;;;4.65;2.38;;;;;;;13.73;89.07;96649.00;5053269;28;20056;-73
2021/06/06 02:06:44;;;;;;;5.03;2.20;;;;;;;13.73;89.03;96657.22;5053404;28;20037;-73
2021/06/06 02:09:15;;;;;;;5.22;2.47;;;;;;;13.71;89.17;96659.47;5053066;28;20419;-73
2021/06/06 02:11:46;;;;;;;5.90;2.72;;;;;;;13.61;89.19;96657.09;5053447;28;20048;-73
2021/06/06 02:14:16;;;;;;;6.82;2.58;;;;;;;13.60;89.44;96655.50;5052921;28;20068;-73
2021/06/06 02:16:44;;;;;;;6.22;2.72;;;;;;;13.63;90.00;96657.59;5053062;28;20041;-73
2021/06/06 02:19:10;;;;;;;7.25;3.25;;;;;;;13.64;90.10;96648.25;5052891;28;20500;-73
2021/06/06 02:21:37;;;;;;;5.28;2.70;;;;;;;13.68;90.16;96645.66;5053186;28;20048;-73
2021/06/06 02:24:05;;;;;;;7.13;2.35;;;;;;;13.66;89.39;96648.72;5052792;28;20044;-73
2021/06/06 02:26:37;;;;;;;3.75;2.08;;;;;;;13.61;89.55;96646.16;5035136;28;20096;-73
2021/06/06 02:29:08;;;;;;;6.43;2.72;;;;;;;13.59;90.08;96648.44;5032658;28;20052;-73
2021/06/06 02:31:37;;;;;;;28.40;8.25;;;;;;;13.61;89.89;96653.56;5038939;28;20072;-73
2021/06/06 02:34:11;;;;;;;5.22;2.42;;;;;;;13.59;90.25;96651.19;5030309;28;20068;-73
2021/06/06 02:36:39;;;;;;;4.00;2.13;;;;;;;13.56;90.08;96643.63;5033045;28;20492;-73
2021/06/06 02:39:09;;;;;;;5.05;1.80;;;;;;;13.58;89.97;96644.09;5032508;28;20041;-73
2021/06/06 02:41:41;;;;;;;5.93;2.38;;;;;;;13.56;90.03;96644.41;5032721;28;20060;-73
2021/06/06 02:44:11;;;;;;;5.45;2.40;;;;;;;13.60;89.79;96639.09;5032455;28;20049;-73
2021/06/06 02:46:40;;;;;;;7.45;2.20;;;;;;;13.63;89.88;96646.66;5032651;28;20503;-73
2021/06/06 02:49:09;;;;;;;7.55;2.13;;;;;;;13.60;89.38;96644.56;5032406;28;20041;-73
2021/06/06 02:51:41;;;;;;;5.22;2.30;;;;;;;13.58;89.99;96652.31;5031920;28;20041;-74
2021/06/06 02:54:11;;;;;;;5.20;2.15;;;;;;;13.56;89.70;96649.09;5032131;28;20045;-73
2021/06/06 02:56:42;;;;;;;4.55;2.38;;;;;;;13.61;90.07;96654.38;5032659;28;20443;-73
2021/06/06 02:59:12;;;;;;;5.32;2.50;;;;;;;13.60;89.95;96647.31;5032344;28;20524;-73
2021/06/06 03:01:41;;;;;;;7.38;3.25;;;;;;;13.66;89.97;96651.44;5043883;28;20049;-73
2021/06/06 03:04:11;;;;;;;3.60;2.05;;;;;;;13.70;89.88;96652.41;5031825;28;20144;-73
2021/06/06 03:06:40;;;;;;;5.32;2.45;;;;;;;13.74;89.82;96644.34;5032095;28;20124;-73
2021/06/06 03:09:10;;;;;;;5.57;2.20;;;;;;;13.72;89.40;96646.59;5031922;28;20069;-73
2021/06/06 03:11:37;;;;;;;7.28;2.75;;;;;;;13.67;89.37;96644.84;5032410;28;20056;-73
2021/06/06 03:14:07;;;;;;;4.68;2.13;;;;;;;13.70;89.56;96644.19;5032050;28;20550;-73
2021/06/06 03:16:36;;;;;;;6.53;3.05;;;;;;;13.74;89.86;96647.88;5032284;28;20037;-73
2021/06/06 03:19:04;;;;;;;4.70;2.33;;;;;;;13.79;89.57;96642.22;5031786;28;20051;-73
2021/06/06 03:21:34;;;;;;;5.57;2.60;;;;;;;13.80;89.53;96646.53;5032134;28;20037;-73
2021/06/06 03:24:04;;;;;;;5.50;2.30;;;;;;;13.75;89.57;96649.47;5032258;28;20046;-73
2021/06/06 03:26:33;;;;;;;4.80;2.28;;;;;;;13.72;90.05;96641.91;5031715;28;20045;-73
2021/06/06 03:29:02;;;;;;;6.00;2.65;;;;;;;13.70;89.91;96641.44;5032060;28;20041;-73
2021/06/06 03:31:32;;;;;;;5.72;2.60;;;;;;;13.67;89.97;96642.09;5043091;28;20045;-73
2021/06/06 03:34:01;;;;;;;4.47;2.58;;;;;;;13.72;90.30;96641.91;5031671;28;20096;-73
2021/06/06 03:36:30;;;;;;;6.28;2.40;;;;;;;13.76;90.37;96642.84;5031626;28;20037;-73
2021/06/06 03:38:58;;;;;;;5.53;2.47;;;;;;;13.74;89.82;96644.34;5031879;28;20048;-73
2021/06/06 03:41:25;;;;;;;5.13;2.40;;;;;;;13.76;90.04;96644.81;5031156;28;20096;-73
2021/06/06 03:43:51;;;;;;;6.47;2.67;;;;;;;13.74;90.27;96639.66;5031746;28;20048;-73
2021/06/06 03:46:18;;;;;;;4.85;2.45;;;;;;;13.71;90.41;96634.84;5031257;28;20046;-73
2021/06/06 03:48:45;;;;;;;5.75;2.15;;;;;;;13.72;90.22;96627.44;5031585;28;20103;-73
2021/06/06 03:51:14;;;;;;;6.20;2.70;;;;;;;13.70;90.37;96637.91;5031217;28;20069;-73
2021/06/06 03:53:40;;;;;;;4.90;2.65;;;;;;;13.74;90.61;96639.66;5031373;28;20056;-73
2021/06/06 03:56:08;;;;;;;3.10;1.90;;;;;;;13.71;90.57;96634.84;5030650;28;20556;-73
2021/06/06 03:58:34;;;;;;;5.90;2.47;;;;;;;13.69;90.00;96636.31;5031472;28;20064;-73
2021/06/06 04:01:01;;;;;;;4.47;2.25;;;;;;;13.66;90.67;96639.69;5038921;28;20048;-73
2021/06/06 04:03:28;;;;;;;5.22;2.22;;;;;;;13.64;90.89;96634.56;5035219;28;20041;-73
2021/06/06 04:05:54;;;;;;;7.45;2.80;;;;;;;13.62;90.74;96636.81;5031350;28;20168;-73
2021/06/06 04:08:22;;;;;;;6.38;2.28;;;;;;;13.56;90.76;96638.16;5031091;28;20049;-73
2021/06/06 04:10:48;;;;;;;4.68;2.20;;;;;;;13.55;90.92;96631.06;5031293;28;20052;-73
2021/06/06 04:13:14;;;;;;;4.78;2.00;;;;;;;13.55;91.16;96631.06;5030836;28;20045;-72
2021/06/06 04:15:41;;;;;;;5.95;2.55;;;;;;;13.52;91.28;96632.56;5031048;28;20049;-73
2021/06/06 04:18:12;;;;;;;4.32;2.20;;;;;;;13.51;91.45;96630.13;5030753;28;20060;-73
2021/06/06 04:20:39;;;;;;;5.13;2.35;;;;;;;13.51;91.79;96624.66;5031407;28;20463;-73
2021/06/06 04:23:05;;;;;;;4.43;2.25;;;;;;;13.53;91.66;96628.69;5030884;28;20049;-72
2021/06/06 04:25:33;;;;;;;6.43;2.63;;;;;;;13.54;91.70;96629.47;5031217;28;20049;-72
2021/06/06 04:27:59;;;;;;;3.30;2.28;;;;;;;13.59;91.96;96629.28;5031010;28;20042;-73
2021/06/06 04:30:25;;;;;;;5.18;2.70;;;;;;;13.60;91.85;96635.56;5033370;28;20041;-73
2021/06/06 04:32:51;;;;;;;3.95;2.10;;;;;;;13.60;91.77;96638.28;5040087;28;20045;-72
2021/06/06 04:35:17;;;;;;;5.65;2.33;;;;;;;13.60;91.61;96639.09;5030475;28;20519;-73
2021/06/06 04:37:43;;;;;;;6.57;2.65;;;;;;;13.62;91.88;96641.50;5031027;28;20041;-72
2021/06/06 04:40:11;;;;;;;4.00;2.22;;;;;;;13.64;91.98;96642.78;5030654;28;20512;-72
2021/06/06 04:42:39;;;;;;;5.88;2.67;;;;;;;13.63;91.69;96643.91;5030816;28;20519;-72
2021/06/06 04:45:08;;;;;;;5.75;2.20;;;;;;;13.64;91.61;96644.72;5030490;28;20045;-72
2021/06/06 04:47:34;;;;;;;8.55;2.60;;;;;;;13.67;91.63;96644.84;5031064;28;20056;-72
2021/06/06 04:50:00;;;;;;;8.00;2.60;;;;;;;13.72;91.88;96641.13;5030983;28;20038;-72
2021/06/06 04:52:26;;;;;;;7.70;2.38;;;;;;;13.74;91.73;96645.13;5030269;28;20053;-72
2021/06/06 04:54:52;;;;;;;6.82;2.22;;;;;;;13.78;91.71;96645.25;5030644;28;20056;-72
2021/06/06 04:57:18;;;;;;;4.30;2.08;;;;;;;13.83;91.76;96640.41;5030341;28;20103;-72
2021/06/06 04:59:45;;;;;;;3.88;2.00;;;;;;;13.84;91.13;96643.97;5030975;28;20115;-72
2021/06/06 05:02:12;;;;;;;16.42;2.60;;;;;;;13.83;90.99;96645.06;5041430;28;20049;-72
2021/06/06 05:04:40;;;;;;;6.47;2.05;;;;;;;13.81;91.10;96644.59;5030866;28;20116;-72
2021/06/06 05:07:06;;;;;;;4.95;2.40;;;;;;;13.83;91.34;96648.63;5029837;28;20176;-73
2021/06/06 05:09:32;;;;;;;5.25;2.17;;;;;;;13.83;91.01;96643.16;5030869;28;20052;-73
2021/06/06 05:11:58;;;;;;;5.15;2.50;;;;;;;13.81;90.94;96650.09;5030686;28;20042;-73
2021/06/06 05:14:24;;;;;;;5.40;2.30;;;;;;;13.81;91.11;96645.41;5031190;28;20064;-73
2021/06/06 05:16:51;;;;;;;4.80;1.75;;;;;;;13.81;91.63;96637.19;5034230;28;20056;-73
2021/06/06 05:19:17;;;;;;;5.05;2.33;;;;;;;13.82;91.81;96641.53;5033949;28;20514;-73
2021/06/06 05:21:43;;;;;;;4.82;2.25;;;;;;;13.78;91.93;96646.09;5034417;28;20041;-72
2021/06/06 05:24:09;;;;;;;4.35;2.35;;;;;;;13.78;91.95;96643.34;5033865;28;20072;-73
2021/06/06 05:26:36;;;;;;;6.75;2.53;;;;;;;13.79;92.03;96644.16;5034041;28;20049;-73
2021/06/06 05:29:03;;;;;;;5.45;2.30;;;;;;;13.81;91.98;96639.94;5033836;28;20045;-73
2021/06/06 05:31:29;;;;;;;5.43;2.88;;;;;;;13.84;92.44;96639.28;5045354;28;20045;-73
2021/06/06 05:33:57;;;;;;;4.25;2.28;;;;;;;13.87;92.19;96647.94;5034544;28;20045;-73
2021/06/06 05:36:23;;;;;;;5.22;2.30;;;;;;;13.87;92.05;96642.47;5033705;28;20045;-72
2021/06/06 05:38:49;;;;;;;4.80;1.98;;;;;;;13.95;92.19;96644.38;5034250;28;20427;-73
2021/06/06 05:41:15;;;;;;;3.45;2.00;;;;;;;14.00;92.17;96634.03;5033594;28;20091;-73
2021/06/06 05:43:41;;;;;;;8.82;2.13;;;;;;;14.00;91.58;96635.97;5034098;28;20164;-72
2021/06/06 05:46:10;;;;;;;4.68;2.10;;;;;;;13.94;91.54;96642.75;5033466;28;20128;-72
2021/06/06 05:48:36;;;;;;;4.25;2.03;;;;;;;13.89;91.72;96645.69;5034081;28;20439;-72
2021/06/06 05:51:04;;;;;;;5.70;2.42;;;;;;;13.91;92.10;96643.44;5033447;28;20046;-72
2021/06/06 05:53:30;;;;;;;4.88;2.05;;;;;;;13.92;92.03;96645.03;5033617;28;20507;-72
2021/06/06 05:55:57;;;;;;;3.42;1.85;;;;;;;13.87;91.87;96647.94;5033904;28;20069;-72
2021/06/06 05:58:23;;;;;;;5.05;2.30;;;;;;;13.90;92.08;96644.56;5033384;28;20046;-72
2021/06/06 06:00:49;;;;;;;4.90;2.25;;;;;;;13.92;92.32;96640.34;5039809;28;20060;-73
2021/06/06 06:03:16;;;;;;;3.60;1.90;;;;;;;13.95;92.22;96645.16;5038083;28;20049;-72
2021/06/06 06:05:43;;;;;;;4.53;2.17;;;;;;;13.96;92.80;96643.22;5033478;28;20091;-72
2021/06/06 06:08:13;;;;;;;3.30;1.80;;;;;;;13.91;92.28;96643.44;5033204;28;20041;-72
2021/06/06 06:10:39;;;;;;;4.20;1.80;;;;;;;13.93;92.72;96638.41;5033606;28;20056;-72
2021/06/06 06:13:05;;;;;;;4.22;2.05;;;;;;;13.94;92.52;96631.78;5033112;28;20038;-72
2021/06/06 06:15:31;;;;;;;3.40;1.92;;;;;;;13.96;92.53;96630.34;5033642;28;20412;-73
2021/06/06 06:17:57;;;;;;;3.75;1.83;;;;;;;14.07;92.86;96636.22;5033396;28;20041;-72
2021/06/06 06:20:23;;;;;;;4.82;2.00;;;;;;;14.10;92.91;96635.56;5032956;28;20045;-72
2021/06/06 06:22:49;;;;;;;4.88;1.83;;;;;;;14.09;92.29;96633.94;5033407;28;20046;-72
2021/06/06 06:25:18;;;;;;;3.90;1.90;;;;;;;14.14;92.46;96633.75;5032484;28;20060;-72
2021/06/06 06:27:44;;;;;;;4.72;2.30;;;;;;;14.21;92.43;96628.53;5032502;28;20049;-72
2021/06/06 06:30:14;;;;;;;3.08;1.90;;;;;;;14.28;92.51;96633.47;5033516;28;20516;-72
2021/06/06 06:32:40;;;;;;;3.50;1.60;;;;;;;14.28;91.81;96631.53;5041501;28;20574;-72
2021/06/06 06:35:08;;;;;;;3.78;2.00;;;;;;;14.31;92.03;96630.88;5032380;28;20120;-72
2021/06/06 06:37:34;;;;;;;4.88;1.88;;;;;;;14.32;91.53;96627.00;5032884;28;20041;-72
2021/06/06 06:40:00;;;;;;;3.53;1.60;;;;;;;14.31;91.34;96624.59;5033042;28;20053;-72
2021/06/06 06:42:28;;;;;;;3.65;1.92;;;;;;;14.24;91.37;96636.06;5032631;28;20069;-71
2021/06/06 06:44:54;;;;;;;2.63;1.40;;;;;;;14.29;92.17;96633.13;5032927;28;20076;-72
2021/06/06 06:47:20;;;;;;;3.42;1.73;;;;;;;14.37;92.35;96634.22;5032282;28;20674;-72
2021/06/06 06:49:46;;;;;;;2.95;1.40;;;;;;;14.42;92.19;96638.69;5032642;28;20073;-72
2021/06/06 06:52:12;;;;;;;3.20;1.45;;;;;;;14.45;91.80;96641.53;5032058;28;20053;-72
2021/06/06 06:54:38;;;;;;;2.22;1.45;;;;;;;14.40;90.85;96632.72;5032799;28;20053;-72
2021/06/06 06:57:05;;;;;;;4.32;2.05;;;;;;;14.33;91.08;96636.81;5032088;28;20607;-72
2021/06/06 06:59:32;;;;;;;3.53;1.77;;;;;;;14.32;91.39;96631.69;5032551;28;20125;-72
2021/06/06 07:02:00;;;;;;;4.72;1.98;;;;;;;14.28;90.84;96628.81;5045860;28;20442;-72
2021/06/06 07:04:26;;;;;;;4.90;2.22;;;;;;;14.33;91.24;96638.75;5032056;28;20123;-72
2021/06/06 07:06:54;;;;;;;3.15;1.40;;;;;;;14.39;91.62;96631.13;5032391;28;20045;-72
2021/06/06 07:09:21;;;;;;;3.28;1.27;;;;;;;14.33;91.12;96631.34;5032000;28;20053;-72
2021/06/06 07:11:47;;;;;;;2.47;1.30;;;;;;;14.34;91.51;96624.72;5032486;28;20432;-71
2021/06/06 07:14:13;;;;;;;3.13;1.40;;;;;;;14.38;91.53;96629.53;5032011;28;20042;-72
2021/06/06 07:16:41;;;;;;;4.07;1.42;;;;;;;14.33;91.10;96634.06;5032219;28;20518;-72
2021/06/06 07:19:08;;;;;;;3.35;1.42;;;;;;;14.39;91.80;96625.66;5031582;28;20508;-72
2021/06/06 07:21:35;;;;;;;1.85;1.13;;;;;;;14.45;92.11;96629.78;5031874;28;20650;-72
2021/06/06 07:24:02;;;;;;;2.28;1.15;;;;;;;14.49;91.68;96620.59;5031961;28;20061;-72
2021/06/06 07:26:30;;;;;;;2.97;1.40;;;;;;;14.61;91.57;96623.38;5031805;28;20099;-72
2021/06/06 07:28:59;;;;;;;3.85;1.23;;;;;;;14.70;90.84;96626.03;5032013;28;20045;-72
2021/06/06 07:31:26;;;;;;;3.58;1.42;;;;;;;14.79;90.66;96625.97;5042381;28;20075;-72
2021/06/06 07:33:53;;;;;;;3.20;1.10;;;;;;;14.87;90.27;96625.84;5033924;28;20052;-72
2021/06/06 07:36:21;;;;;;;1.98;0.93;;;;;;;14.91;89.42;96619.69;5031347;28;20049;-72
2021/06/06 07:38:48;;;;;;;2.00;0.90;;;;;;;14.95;89.10;96626.09;5031640;28;20049;-72
2021/06/06 07:41:15;;;;;;;3.53;1.10;;;;;;;14.95;88.44;96626.09;5031327;28;20045;-72
2021/06/06 07:43:44;;;;;;;2.25;1.20;;;;;;;14.96;88.28;96628.50;5031814;28;20099;-72
2021/06/06 07:46:10;;;;;;;2.60;1.10;;;;;;;14.98;88.63;96625.41;5031333;28;20056;-72
2021/06/06 07:48:37;;;;;;;2.50;1.38;;;;;;;15.02;88.25;96626.34;5031662;28;20056;-72
2021/06/06 07:51:05;;;;;;;4.68;1.13;;;;;;;15.11;88.53;96625.09;5031132;28;20046;-72
2021/06/06 07:53:31;;;;;;;1.92;1.10;;;;;;;15.15;88.06;96622.50;5031482;28;20507;-72
2021/06/06 07:55:57;;;;;;;2.33;1.02;;;;;;;15.16;87.16;96631.53;5031533;28;20041;-72
2021/06/06 07:58:25;;;;;;;2.60;1.23;;;;;;;15.17;86.73;96628.44;5030797;28;20042;-72
2021/06/06 08:00:52;;;;;;;3.63;1.30;;;;;;;15.20;86.77;96616.78;5037778;28;20098;-71
2021/06/06 08:03:18;;;;;;;2.17;1.20;;;;;;;15.26;87.62;96615.41;5037624;28;20480;-71
2021/06/06 08:05:45;;;;;;;3.60;1.13;;;;;;;15.31;86.89;96620.69;5031388;28;20049;-71
2021/06/06 08:08:14;;;;;;;2.80;1.40;;;;;;;15.35;87.33;96618.06;5030829;28;20042;-71
2021/06/06 08:10:43;;;;;;;3.08;1.75;;;;;;;15.43;88.09;96621.81;5031021;28;20053;-72
2021/06/06 08:13:09;;;;;;;2.10;1.05;;;;;;;15.44;86.64;96623.41;5030941;28;20419;-72
2021/06/06 08:15:36;;;;;;;2.63;1.20;;;;;;;15.43;85.96;96630.84;5031380;28;20094;-71
2021/06/06 08:18:07;;;;;;;2.88;1.33;;;;;;;15.43;85.86;96627.31;5030957;28;20049;-71
2021/06/06 08:20:35;;;;;;;2.35;1.17;;;;;;;15.40;85.57;96626.06;5031286;28;20487;-72
2021/06/06 08:23:02;;;;;;;2.50;1.17;;;;;;;15.39;85.42;96625.25;5030883;28;20396;-71
2021/06/06 08:25:29;;;;;;;1.52;0.70;;;;;;;15.37;85.48;96622.06;5031204;28;20042;-71
2021/06/06 08:27:55;;;;;;;2.78;0.98;;;;;;;15.34;85.71;96622.72;5030889;28;20038;-71
2021/06/06 08:30:25;;;;;;;3.15;1.00;;;;;;;15.38;85.79;96620.09;5032829;28;20488;-71
2021/06/06 08:32:51;;;;;;;2.13;1.00;;;;;;;15.37;85.54;96621.25;5039471;28;20057;-71
2021/06/06 08:35:18;;;;;;;1.10;0.60;;;;;;;15.33;85.29;96614.84;5030757;28;20056;-71
2021/06/06 08:37:44;;;;;;;3.50;0.77;;;;;;;15.29;85.09;96625.69;5030929;28;20455;-71
2021/06/06 08:40:13;;;;;;;1.80;0.88;;;;;;;15.29;85.62;96627.63;5030650;28;20050;-71
2021/06/06 08:42:44;;;;;;;1.17;0.70;;;;;;;15.28;86.40;96632.31;5030917;28;20065;-71
2021/06/06 08:45:19;;;;;;;1.35;0.75;;;;;;;15.23;85.83;96638.03;5030327;28;20054;-71
2021/06/06 08:47:45;;;;;;;2.47;1.02;;;;;;;15.22;86.14;96625.47;5031122;28;20053;-71
2021/06/06 08:50:15;;;;;;;1.95;0.90;;;;;;;15.23;86.44;96627.06;5032768;28;20050;-71
2021/06/06 08:52:47;;;;;;;3.15;0.90;;;;;;;15.21;86.26;96634.84;5034872;28;20129;-71
2021/06/06 08:55:29;;;;;;;3.70;1.10;;;;;;;15.24;86.56;96622.38;5034369;28;20635;-71
2021/06/06 08:58:12;;;;;;;2.30;1.10;;;;;;;15.26;86.49;96626.38;5034537;28;20045;-71
2021/06/06 09:00:42;;;;;;;1.30;0.80;;;;;;;15.27;87.39;96627.97;5039194;28;20495;-71
2021/06/06 09:03:13;;;;;;;0.88;0.50;;;;;;;15.31;86.80;96628.91;5042409;28;20613;-71
2021/06/06 09:05:42;;;;;;;2.63;0.82;;;;;;;15.29;86.66;96625.69;5034752;28;20041;-70
2021/06/06 09:08:13;;;;;;;2.47;0.88;;;;;;;15.33;87.45;96634.84;5034309;28;20649;-71
2021/06/06 09:10:42;;;;;;;4.40;1.10;;;;;;;15.33;86.83;96632.09;5034660;28;20124;-70
2021/06/06 09:13:13;;;;;;;3.47;1.10;;;;;;;15.36;86.51;96627.88;5033925;28;20187;-71
2021/06/06 09:15:39;;;;;;;1.85;0.98;;;;;;;15.43;86.60;96632.81;5034576;28;20045;-71
2021/06/06 09:18:18;;;;;;;3.30;0.73;;;;;;;15.42;84.85;96631.19;5033754;28;20041;-71
2021/06/06 09:20:46;;;;;;;3.17;0.85;;;;;;;15.30;84.80;96638.28;5034426;28;20693;-70
2021/06/06 09:23:15;;;;;;;1.63;0.73;;;;;;;15.28;85.08;96634.28;5034056;28;20612;-70
2021/06/06 09:25:43;;;;;;;2.35;1.13;;;;;;;15.27;85.03;96633.47;5034184;28;20121;-70
2021/06/06 09:28:13;;;;;;;3.42;1.33;;;;;;;15.29;85.67;96631.19;5033677;28;20065;-71
2021/06/06 09:30:41;;;;;;;2.53;1.10;;;;;;;15.33;86.03;96623.88;5038997;28;20083;-71
2021/06/06 09:33:12;;;;;;;2.08;0.90;;;;;;;15.40;85.45;96626.88;5039882;28;20045;-71
2021/06/06 09:35:41;;;;;;;2.22;0.90;;;;;;;15.42;84.74;96625.72;5034072;28;20041;-72
2021/06/06 09:38:14;;;;;;;1.83;0.90;;;;;;;15.42;85.01;96628.47;5033788;28;20095;-70
2021/06/06 09:40:43;;;;;;;2.28;1.00;;;;;;;15.35;85.10;96629.84;5034119;28;20100;-71
2021/06/06 09:43:23;;;;;;;6.97;1.45;;;;;;;15.40;85.34;96626.88;5033431;28;20045;-71
2021/06/06 09:45:49;;;;;;;2.58;1.23;;;;;;;15.39;84.98;96630.72;5034108;28;20041;-71
2021/06/06 09:48:24;;;;;;;2.35;1.02;;;;;;;15.43;85.50;96625.38;5033299;28;20053;-70
2021/06/06 09:50:53;;;;;;;2.47;1.23;;;;;;;15.44;85.51;96629.72;5033881;28;20433;-71
2021/06/06 09:53:23;;;;;;;2.10;1.10;;;;;;;15.44;85.55;96629.72;5033324;28;20053;-71
2021/06/06 09:55:49;;;;;;;2.30;1.30;;;;;;;15.48;86.50;96633.38;5033575;28;20042;-71
2021/06/06 09:58:27;;;;;;;2.38;1.25;;;;;;;15.44;85.87;96637.13;5033366;28;20045;-71
2021/06/06 10:00:57;;;;;;;4.47;1.52;;;;;;;15.50;86.62;96633.03;5039696;28;20055;-71
2021/06/06 10:03:30;;;;;;;4.10;1.40;;;;;;;15.60;86.96;96632.56;5037146;28;20049;-71
2021/06/06 10:06:11;;;;;;;3.95;1.40;;;;;;;15.57;87.12;96625.03;5033375;28;20061;-71
2021/06/06 10:08:37;;;;;;;2.35;1.30;;;;;;;15.53;86.40;96624.91;5033255;28;20109;-71
2021/06/06 10:11:10;;;;;;;2.25;1.20;;;;;;;15.57;87.07;96623.09;5032933;28;20408;-71
2021/06/06 10:13:41;;;;;;;3.20;1.63;;;;;;;15.55;86.97;96628.09;5033251;28;20488;-71
2021/06/06 10:16:09;;;;;;;3.47;1.48;;;;;;;15.57;87.31;96614.06;5032801;28;20280;-71
2021/06/06 10:18:40;;;;;;;2.13;1.23;;;;;;;15.61;86.96;96625.97;5033276;28;20033;-72
2021/06/06 10:21:11;;;;;;;2.70;1.35;;;;;;;15.65;87.38;96621.38;5032492;28;20038;-71
2021/06/06 10:23:40;;;;;;;2.05;1.27;;;;;;;15.74;88.17;96630.31;5033202;28;20057;-71
2021/06/06 10:26:14;;;;;;;2.08;1.17;;;;;;;15.75;87.66;96631.91;5032641;28;20053;-71
2021/06/06 10:28:46;;;;;;;1.65;1.15;;;;;;;15.80;87.63;96619.88;5033210;28;20042;-71
2021/06/06 10:31:24;;;;;;;2.28;1.30;;;;;;;15.82;87.15;96625.84;5041849;28;20045;-71
2021/06/06 10:33:52;;;;;;;2.05;1.35;;;;;;;15.75;86.35;96628.34;5033311;28;20095;-71
2021/06/06 10:36:20;;;;;;;3.55;1.63;;;;;;;15.79;87.14;96627.34;5032556;28;20049;-71
2021/06/06 10:38:47;;;;;;;3.17;1.38;;;;;;;15.85;87.05;96631.44;5033154;28;20045;-71
2021/06/06 10:41:17;;;;;;;2.03;1.27;;;;;;;15.72;85.94;96629.88;5032781;28;20392;-70
2021/06/06 10:43:48;;;;;;;2.58;1.20;;;;;;;15.65;87.29;96626.88;5033142;28;20052;-71
2021/06/06 10:46:21;;;;;;;3.17;1.27;;;;;;;15.60;86.85;96629.81;5032633;28;20053;-71
2021/06/06 10:48:52;;;;;;;2.47;1.08;;;;;;;15.59;86.54;96623.53;5032896;28;20037;-71
2021/06/06 10:51:32;;;;;;;1.65;0.85;;;;;;;15.53;86.71;96629.59;5032253;28;20050;-71
2021/06/06 10:54:00;;;;;;;1.50;1.08;;;;;;;15.52;87.62;96628.00;5032657;28;20053;-71
2021/06/06 10:56:34;;;;;;;3.05;1.30;;;;;;;15.53;88.09;96627.66;5032363;28;20495;-71
2021/06/06 10:59:04;;;;;;;3.63;1.27;;;;;;;15.51;87.41;96634.66;5032562;28;20069;-71
2021/06/06 11:01:48;;;;;;;2.33;1.13;;;;;;;15.51;87.48;96631.91;5043623;28;20044;-71
2021/06/06 11:04:17;;;;;;;4.22;1.75;;;;;;;15.51;87.91;96629.16;5012056;28;20042;-71
2021/06/06 11:06:47;;;;;;;2.70;1.30;;;;;;;15.53;88.06;96629.59;5012420;28;20049;-71
2021/06/06 11:09:23;;;;;;;3.20;1.50;;;;;;;15.57;88.36;96630.53;5011914;28;20045;-71
2021/06/06 11:11:58;;;;;;;3.33;1.38;;;;;;;15.67;88.62;96621.06;5011712;28;20050;-71
2021/06/06 11:14:36;;;;;;;3.13;1.30;;;;;;;15.66;87.43;96620.25;5011917;28;20050;-71
2021/06/06 11:17:12;;;;;;;3.45;1.08;;;;;;;15.60;86.17;96619.63;5011482;28;20050;-71
2021/06/06 11:19:38;;;;;;;2.08;1.13;;;;;;;15.56;86.54;96624.25;5012122;28;20046;-71
2021/06/06 11:22:30;;;;;;;2.20;1.20;;;;;;;15.58;86.85;96616.44;5011667;28;20057;-71
2021/06/06 11:24:57;;;;;;;1.20;0.70;;;;;;;15.56;86.24;96617.94;5010786;28;20044;-71
2021/06/06 11:27:33;;;;;;;2.03;1.08;;;;;;;15.55;84.71;96610.84;5011935;28;20049;-71
2021/06/06 11:30:08;;;;;;;2.33;0.93;;;;;;;15.57;85.32;96614.06;5012284;28;20042;-71
2021/06/06 11:32:41;;;;;;;2.40;1.13;;;;;;;15.60;85.82;96619.63;5031491;28;20096;-71
2021/06/06 11:35:48;;;;;;;1.90;0.90;;;;;;;15.59;84.74;96612.56;5031545;28;20045;-71
2021/06/06 11:38:26;;;;;;;2.30;0.80;;;;;;;15.62;84.34;96608.34;5031427;28;20125;-71
2021/06/06 11:41:07;;;;;;;2.20;1.00;;;;;;;15.68;84.31;96603.44;5031658;28;20048;-71
2021/06/06 11:43:36;;;;;;;1.50;0.80;;;;;;;15.75;82.96;96604.44;5031618;28;20095;-71